Latest Weather Observations for South Channel Island

IDV60901

Issued at 2:25 pm EST Saturday 2 August 2014 (issued every 10 minutes, with the page automatically refreshed every 10 minutes)

About weather observations | Map of Melbourne area stations | Latest observations for Melbourne area | Other Formats
Station Details ID: 086344 Name: SOUTH CHANNEL ISLAND Lat: -38.31 Lon: 144.80 Height: 9.0 m
Data from the previous 72 hours. | See also: Recent months for locations in Victoria
Date/Time
EST
Tmp

°C
App
Tmp
°C
Dew
Point
°C
Rel
Hum
%
Delta-T

°C
Wind Press
QNH
hPa
Press
MSL
hPa
Rain
since
9 am
mm
Dir
 
Spd
km/h
Gust
km/h
Spd
kts
Gust
kts
02/02:00pm - - - - - NW 13 13 7 7 - - -
02/01:30pm - - - - - WNW 19 20 10 11 - - -
02/01:00pm - - - - - W 28 35 15 19 - - -
02/12:30pm - - - - - WNW 17 19 9 10 - - -
02/12:00pm - - - - - WNW 20 24 11 13 - - -
02/11:30am - - - - - WNW 17 19 9 10 - - -
02/11:00am - - - - - NW 20 22 11 12 - - -
02/10:30am - - - - - WNW 19 22 10 12 - - -
02/10:00am - - - - - WNW 24 30 13 16 - - -
02/09:30am - - - - - NW 24 30 13 16 - - -
02/09:00am - - - - - WNW 24 37 13 20 - - -
02/08:30am - - - - - S 17 19 9 10 - - -
02/08:00am - - - - - S 44 54 24 29 - - -
02/07:50am - - - - - S 37 56 20 30 - - -
02/07:43am - - - - - S 28 43 15 23 - - -
02/07:30am - - - - - ENE 9 11 5 6 - - -
02/07:00am - - - - - ESE 20 24 11 13 - - -
02/06:30am - - - - - SSW 32 35 17 19 - - -
02/06:00am - - - - - S 28 33 15 18 - - -
02/05:30am - - - - - SSW 26 30 14 16 - - -
02/05:00am - - - - - S 35 41 19 22 - - -
02/04:30am - - - - - SSW 28 33 15 18 - - -
02/04:00am - - - - - SSW 37 43 20 23 - - -
02/03:30am - - - - - SSW 33 41 18 22 - - -
02/03:00am - - - - - SSW 37 43 20 23 - - -
02/02:30am - - - - - SSW 39 50 21 27 - - -
02/02:23am - - - - - SSW 39 44 21 24 - - -
02/02:00am - - - - - WSW 35 43 19 23 - - -
02/01:30am - - - - - SW 50 61 27 33 - - -
02/01:18am - - - - - SW 44 63 24 34 - - -
02/01:00am - - - - - SW 46 57 25 31 - - -
02/12:30am - - - - - SSW 50 57 27 31 - - -
02/12:00am - - - - - SSW 43 52 23 28 - - -
 
Date/Time
EST
Tmp

°C
App
Tmp
°C
Dew
Point
°C
Rel
Hum
%
Delta-T

°C
Wind Press
QNH
hPa
Press
MSL
hPa
Rain
since
9 am
mm
Dir
 
Spd
km/h
Gust
km/h
Spd
kts
Gust
kts
01/11:30pm - - - - - SSW 44 56 24 30 - - -
01/11:00pm - - - - - SSW 50 59 27 32 - - -
01/10:30pm - - - - - SSW 44 54 24 29 - - -
01/10:00pm - - - - - SSW 48 59 26 32 - - -
01/09:40pm - - - - - SSW 41 48 22 26 - - -
01/09:30pm - - - - - WSW 37 48 20 26 - - -
01/09:22pm - - - - - WSW 39 43 21 23 - - -
01/09:03pm - - - - - W 39 48 21 26 - - -
01/09:00pm - - - - - SW 37 50 20 27 - - -
01/08:48pm - - - - - SSW 46 59 25 32 - - -
01/08:30pm - - - - - WSW 41 54 22 29 - - -
01/08:19pm - - - - - SW 39 48 21 26 - - -
01/08:13pm - - - - - S 46 52 25 28 - - -
01/08:10pm - - - - - SW 39 48 21 26 - - -
01/08:00pm - - - - - SW 17 22 9 12 - - -
01/07:30pm - - - - - SW 30 35 16 19 - - -
01/07:00pm - - - - - SSW 32 39 17 21 - - -
01/06:56pm - - - - - SSW 32 37 17 20 - - -
01/06:46pm - - - - - S 41 48 22 26 - - -
01/06:36pm - - - - - S 59 78 32 42 - - -
01/06:32pm - - - - - S 65 78 35 42 - - -
01/06:30pm - - - - - SSW 54 78 29 42 - - -
01/06:29pm - - - - - SW 50 69 27 37 - - -
01/06:00pm - - - - - SSW 48 57 26 31 - - -
01/05:40pm - - - - - SSW 41 59 22 32 - - -
01/05:30pm - - - - - SSW 43 52 23 28 - - -
01/05:00pm - - - - - SSW 54 67 29 36 - - -
01/04:30pm - - - - - SSW 63 78 34 42 - - -
01/04:09pm - - - - - SW 69 76 37 41 - - -
01/04:02pm - - - - - WSW 48 70 26 38 - - -
01/04:00pm - - - - - WSW 46 57 25 31 - - -
01/03:30pm - - - - - SW 61 83 33 45 - - -
01/03:18pm - - - - - WSW 57 80 31 43 - - -
01/03:00pm - - - - - WSW 63 78 34 42 - - -
01/02:51pm - - - - - WSW 50 69 27 37 - - -
01/02:45pm - - - - - WSW 39 52 21 28 - - -
01/02:30pm - - - - - WNW 44 56 24 30 - - -
01/02:28pm - - - - - WNW 48 67 26 36 - - -
01/02:00pm - - - - - W 39 50 21 27 - - -
01/01:58pm - - - - - W 39 50 21 27 - - -
01/01:52pm - - - - - SW 39 50 21 27 - - -
01/01:30pm - - - - - WNW 33 43 18 23 - - -
01/01:23pm - - - - - WNW 39 48 21 26 - - -
01/01:00pm - - - - - W 39 43 21 23 - - -
01/12:48pm - - - - - WSW 43 50 23 27 - - -
01/12:44pm - - - - - WSW 63 85 34 46 - - -
01/12:38pm - - - - - W 56 76 30 41 - - -
01/12:30pm - - - - - W 52 59 28 32 - - -
01/12:00pm - - - - - WNW 56 67 30 36 - - -
01/11:30am - - - - - WNW 63 76 34 41 - - -
01/11:00am - - - - - WNW 67 82 36 44 - - -
01/10:52am - - - - - WNW 61 82 33 44 - - -
01/10:30am - - - - - WNW 59 72 32 39 - - -
01/10:00am - - - - - NW 56 65 30 35 - - -
01/09:45am - - - - - NW 50 72 27 39 - - -
01/09:30am - - - - - NW 44 54 24 29 - - -
01/09:00am - - - - - NW 46 61 25 33 - - -
01/08:30am - - - - - NW 50 57 27 31 - - -
01/08:00am - - - - - NW 61 70 33 38 - - -
01/07:57am - - - - - NW 61 70 33 38 - - -
01/07:30am - - - - - NW 43 61 23 33 - - -
01/07:23am - - - - - NNW 41 61 22 33 - - -
01/07:00am - - - - - NNW 37 52 20 28 - - -
01/06:30am - - - - - N 35 46 19 25 - - -
01/06:21am - - - - - N 33 39 18 21 - - -
01/06:00am - - - - - NW 43 57 23 31 - - -
01/05:30am - - - - - NW 50 65 27 35 - - -
01/05:00am - - - - - NW 54 69 29 37 - - -
01/04:33am - - - - - NW 52 72 28 39 - - -
01/04:30am - - - - - NW 50 59 27 32 - - -
01/04:00am - - - - - NW 46 59 25 32 - - -
01/03:31am - - - - - NW 48 70 26 38 - - -
01/03:30am - - - - - NW 46 59 25 32 - - -
01/03:00am - - - - - NW 41 52 22 28 - - -
01/02:39am - - - - - NW 44 59 24 32 - - -
01/02:30am - - - - - NW 35 41 19 22 - - -
01/02:00am - - - - - NW 48 57 26 31 - - -
01/01:30am - - - - - NW 50 59 27 32 - - -
01/01:00am - - - - - WNW 57 67 31 36 - - -
01/12:37am - - - - - NW 57 76 31 41 - - -
01/12:30am - - - - - WNW 52 69 28 37 - - -
01/12:00am - - - - - WNW 54 61 29 33 - - -
 
Date/Time
EST
Tmp

°C
App
Tmp
°C
Dew
Point
°C
Rel
Hum
%
Delta-T

°C
Wind Press
QNH
hPa
Press
MSL
hPa
Rain
since
9 am
mm
Dir
 
Spd
km/h
Gust
km/h
Spd
kts
Gust
kts
31/11:30pm - - - - - WNW 54 63 29 34 - - -
31/11:16pm - - - - - WNW 52 70 28 38 - - -
31/11:00pm - - - - - NW 54 61 29 33 - - -
31/10:30pm - - - - - WNW 57 72 31 39 - - -
31/10:00pm - - - - - WNW 57 70 31 38 - - -
31/09:30pm - - - - - WNW 52 69 28 37 - - -
31/09:00pm - - - - - WNW 56 69 30 37 - - -
31/08:31pm - - - - - WNW 54 72 29 39 - - -
31/08:30pm - - - - - WNW 54 69 29 37 - - -
31/08:00pm - - - - - WNW 56 67 30 36 - - -
31/07:30pm - - - - - WNW 56 72 30 39 - - -
31/07:00pm - - - - - NW 52 70 28 38 - - -
31/06:30pm - - - - - NW 56 67 30 36 - - -
31/06:00pm - - - - - WNW 50 57 27 31 - - -
31/05:30pm - - - - - WNW 52 63 28 34 - - -
31/05:00pm - - - - - WNW 57 70 31 38 - - -
31/04:30pm - - - - - W 67 78 36 42 - - -
31/04:13pm - - - - - W 67 85 36 46 - - -
31/04:00pm - - - - - W 72 83 39 45 - - -
31/03:31pm - - - - - W 59 78 32 42 - - -
31/03:30pm - - - - - W 61 78 33 42 - - -
31/03:00pm - - - - - W 63 76 34 41 - - -
31/02:30pm - - - - - W 63 74 34 40 - - -
31/02:00pm - - - - - W 69 83 37 45 - - -
31/01:50pm - - - - - W 78 98 42 53 - - -
31/01:32pm - - - - - NNW 65 91 35 49 - - -
31/01:30pm - - - - - NNW 63 76 34 41 - - -
31/01:10pm - - - - - NNW 69 87 37 47 - - -
31/01:00pm - - - - - NNW 70 85 38 46 - - -
31/12:30pm - - - - - NNW 72 93 39 50 - - -
31/12:00pm - - - - - NNW 76 98 41 53 - - -
31/11:30am - - - - - NNW 78 104 42 56 - - -
31/11:00am - - - - - NNW 72 95 39 51 - - -
31/10:30am - - - - - NNW 70 96 38 52 - - -
31/10:06am - - - - - NNW 67 85 36 46 - - -
31/10:00am - - - - - N 70 85 38 46 - - -
31/09:30am - - - - - N 63 83 34 45 - - -
31/09:11am - - - - - N 54 72 29 39 - - -
31/09:00am - - - - - N 46 63 25 34 - - -
31/08:49am - - - - - N 37 56 20 30 - - -
31/08:30am - - - - - N 39 50 21 27 - - -
31/08:06am - - - - - N 35 54 19 29 - - -
31/08:00am - - - - - N 37 54 20 29 - - -
31/07:55am - - - - - N 32 52 17 28 - - -
31/07:30am - - - - - NNE 30 46 16 25 - - -
31/07:00am - - - - - N 39 44 21 24 - - -
31/06:30am - - - - - N 44 50 24 27 - - -
31/06:00am - - - - - N 48 56 26 30 - - -
31/05:30am - - - - - N 48 56 26 30 - - -
31/05:00am - - - - - N 57 63 31 34 - - -
31/04:30am - - - - - N 63 72 34 39 - - -
31/04:00am - - - - - N 57 70 31 38 - - -
31/03:30am - - - - - N 54 67 29 36 - - -
31/03:00am - - - - - N 61 72 33 39 - - -
31/02:30am - - - - - N 50 57 27 31 - - -
31/02:00am - - - - - N 48 56 26 30 - - -
31/01:30am - - - - - N 41 48 22 26 - - -
31/01:00am - - - - - N 48 56 26 30 - - -
31/12:30am - - - - - N 50 56 27 30 - - -
31/12:00am - - - - - N 46 52 25 28 - - -
 
Date/Time
EST
Tmp

°C
App
Tmp
°C
Dew
Point
°C
Rel
Hum
%
Delta-T

°C
Wind Press
QNH
hPa
Press
MSL
hPa
Rain
since
9 am
mm
Dir
 
Spd
km/h
Gust
km/h
Spd
kts
Gust
kts
30/11:30pm - - - - - N 50 59 27 32 - - -
30/11:00pm - - - - - NNW 54 59 29 32 - - -
30/10:30pm - - - - - N 54 61 29 33 - - -
30/10:00pm - - - - - N 52 61 28 33 - - -
30/09:30pm - - - - - N 48 56 26 30 - - -
30/09:00pm - - - - - N 41 48 22 26 - - -
30/08:30pm - - - - - NNW 43 50 23 27 - - -
30/08:00pm - - - - - N 37 41 20 22 - - -
30/07:30pm - - - - - N 43 48 23 26 - - -
30/07:00pm - - - - - NNW 43 50 23 27 - - -
30/06:30pm - - - - - NNW 39 46 21 25 - - -
30/06:00pm - - - - - NNW 44 50 24 27 - - -
30/05:30pm - - - - - NNW 43 48 23 26 - - -
30/05:00pm - - - - - NNW 37 41 20 22 - - -
30/04:30pm - - - - - NNW 35 41 19 22 - - -
30/04:00pm - - - - - NW 33 37 18 20 - - -
30/03:30pm - - - - - NW 39 48 21 26 - - -
30/03:00pm - - - - - NW 39 56 21 30 - - -
30/02:56pm - - - - - NW 33 50 18 27 - - -
30/02:30pm - - - - - NW 26 30 14 16 - - -

Latest Capital City Observations: Canberra | Sydney | Melbourne | Brisbane | Adelaide | Perth | Hobart | Darwin

Other Formats:

Comma delimited format used in spreadsheet applications
http://www.bom.gov.au/fwo/IDV60901/IDV60901.94853.axf

JavaScript Object Notation format (JSON) in row-major order
http://www.bom.gov.au/fwo/IDV60901/IDV60901.94853.json